Terminal Aerodrome Forecast
Issued by NWS

Home | Current Version | Previous Version | Text Only | Print | Product List | Glossary On
Versions: 1 2 3 4 5 6 7 8 9 10 11 12 13 14
517
FTUS41 KLWX 250017 AAA
TAFMTN
TAF AMD
KMTN 250017Z 2500/2524 19010KT P6SM VCTS BKN060CB BKN100
      TEMPO 2501/2502 27015G30KT 3SM TSRA OVC025CB
     FM250300 31004KT P6SM BKN045
     FM250600 33007KT P6SM SCT250
     FM251500 34007KT P6SM SCT035
      AMD NOT SKED 2502/2512=

USA.gov is the U.S. government's official web portal to all federal, state and local government web resources and services.